Time;durP1;ratioP1;P1;durP2;ratioP2;P2;SDS_P1;SDS_P2;PMS_P1;PMS_P2;Temp;Humidity;BMP_temperature;BMP_pressure;BME280_temperature;BME280_humidity;BME280_pressure;Samples;Min_cycle;Max_cycle;Signal;HPM_P1;HPM_P2
2022/08/07 00:00:04;;;;;;;7.25;6.65;;;;;;;11.26;100.00;93653.38;2131729;27;20042;-73
2022/08/07 00:01:06;;;;;;;8.27;7.57;;;;;;;11.22;100.00;93649.25;2131750;27;20064;-73
2022/08/07 00:02:07;;;;;;;13.60;7.97;;;;;;;11.33;100.00;93650.59;2127498;27;20113;-70
2022/08/07 00:03:08;;;;;;;8.95;8.02;;;;;;;11.23;100.00;93650.75;2131233;27;20034;-70
2022/08/07 00:04:09;;;;;;;9.30;8.00;;;;;;;11.25;100.00;93651.13;2131593;27;20026;-70
2022/08/07 00:05:10;;;;;;;10.57;8.57;;;;;;;11.20;100.00;93652.34;2131498;27;20030;-69
2022/08/07 00:06:11;;;;;;;8.35;7.55;;;;;;;11.20;100.00;93656.94;2131556;27;20034;-72
2022/08/07 00:07:12;;;;;;;8.25;7.53;;;;;;;11.20;100.00;93662.28;2131444;27;20039;-70
2022/08/07 00:08:12;;;;;;;9.45;7.68;;;;;;;11.15;100.00;93655.47;2131000;27;20491;-70
2022/08/07 00:09:13;;;;;;;8.27;7.47;;;;;;;11.15;100.00;93657.38;2131614;27;20035;-71
2022/08/07 00:10:14;;;;;;;8.80;7.40;;;;;;;11.25;100.00;93651.88;2131315;27;20046;-70
2022/08/07 00:11:15;;;;;;;7.75;7.15;;;;;;;11.19;100.00;93661.50;2131666;27;20135;-70
2022/08/07 00:12:16;;;;;;;8.38;7.68;;;;;;;11.32;100.00;93654.41;2122382;27;20070;-70
2022/08/07 00:13:19;;;;;;;9.43;8.30;;;;;;;11.31;100.00;93658.25;2121634;27;20515;-72
2022/08/07 00:14:20;;;;;;;8.88;8.07;;;;;;;11.36;100.00;93659.72;2131291;27;20039;-70
2022/08/07 00:15:21;;;;;;;9.27;8.48;;;;;;;11.32;100.00;93653.66;2131251;27;20022;-69
2022/08/07 00:16:23;;;;;;;10.65;8.25;;;;;;;11.20;100.00;93654.25;2131543;27;20523;-70
2022/08/07 00:17:24;;;;;;;8.27;7.50;;;;;;;11.25;100.00;93651.88;2131489;27;20471;-70
2022/08/07 00:18:27;;;;;;;9.73;8.75;;;;;;;11.29;100.00;93651.81;2130823;27;20031;-70
2022/08/07 00:19:30;;;;;;;10.05;7.82;;;;;;;11.40;100.00;93652.38;2131602;27;20033;-70
2022/08/07 00:20:31;;;;;;;10.35;8.82;;;;;;;11.44;100.00;93645.06;2131312;27;20015;-73
2022/08/07 00:21:32;;;;;;;10.10;8.55;;;;;;;11.46;100.00;93650.03;2131571;27;20057;-70
2022/08/07 00:22:33;;;;;;;10.07;8.30;;;;;;;11.45;100.00;93643.13;2131520;27;20019;-70
2022/08/07 00:23:37;;;;;;;8.65;7.85;;;;;;;11.45;100.00;93643.13;2130803;27;20026;-72
2022/08/07 00:24:38;;;;;;;9.52;8.63;;;;;;;11.42;100.00;93639.38;2127396;27;20033;-70
2022/08/07 00:25:39;;;;;;;12.05;9.10;;;;;;;11.47;100.00;93640.81;2131231;27;20054;-71
2022/08/07 00:26:40;;;;;;;9.35;8.50;;;;;;;11.53;100.00;93633.81;2131421;27;20025;-70
2022/08/07 00:27:41;;;;;;;9.38;8.48;;;;;;;11.49;100.00;93633.88;2131424;27;20037;-70
2022/08/07 00:28:43;;;;;;;10.65;8.30;;;;;;;11.51;100.00;93636.16;2130621;27;20094;-69
2022/08/07 00:29:44;;;;;;;9.88;8.68;;;;;;;11.53;100.00;93636.50;2131427;27;20030;-73
2022/08/07 00:30:45;;;;;;;10.27;8.60;;;;;;;11.47;100.00;93640.81;2131203;27;20037;-73
2022/08/07 00:31:45;;;;;;;10.32;8.52;;;;;;;11.48;100.00;93629.69;2131443;27;20031;-70
2022/08/07 00:32:48;;;;;;;8.48;7.78;;;;;;;11.56;100.00;93633.00;2131419;27;20448;-72
2022/08/07 00:33:49;;;;;;;9.95;8.40;;;;;;;11.55;100.00;93631.50;2130505;27;20023;-71
2022/08/07 00:34:50;;;;;;;9.43;8.50;;;;;;;11.48;100.00;93626.25;2131390;27;20027;-72
2022/08/07 00:35:52;;;;;;;9.05;8.25;;;;;;;11.57;100.00;93629.16;2131026;27;20512;-71
2022/08/07 00:36:53;;;;;;;8.80;8.05;;;;;;;11.60;100.00;93623.75;2131312;27;20102;-70
2022/08/07 00:37:54;;;;;;;10.52;8.48;;;;;;;11.64;100.00;93622.94;2131269;27;20090;-72
2022/08/07 00:38:55;;;;;;;9.98;8.63;;;;;;;11.53;100.00;93623.88;2130640;27;20035;-72
2022/08/07 00:39:56;;;;;;;8.63;7.70;;;;;;;11.58;100.00;93618.03;2131349;27;20071;-73
2022/08/07 00:40:59;;;;;;;9.82;8.57;;;;;;;11.43;100.00;93624.81;2131131;27;20035;-70
2022/08/07 00:42:00;;;;;;;10.20;7.88;;;;;;;11.44;100.00;93620.22;2131205;27;20089;-73
2022/08/07 00:43:01;;;;;;;8.18;7.47;;;;;;;11.40;100.00;93625.63;2131397;27;20065;-69
2022/08/07 00:44:03;;;;;;;9.20;8.02;;;;;;;11.30;100.00;93626.56;2131230;27;20948;-74
2022/08/07 00:45:04;;;;;;;9.32;8.40;;;;;;;11.32;100.00;93624.97;2130400;27;20118;-70
2022/08/07 00:46:05;;;;;;;8.23;7.40;;;;;;;11.33;100.00;93625.75;2131371;27;20046;-74
2022/08/07 00:47:07;;;;;;;8.48;7.45;;;;;;;11.31;100.00;93622.72;2130439;27;20042;-73
2022/08/07 00:48:09;;;;;;;9.18;7.85;;;;;;;11.30;100.00;93621.22;2127229;27;20035;-72
2022/08/07 00:49:10;;;;;;;9.75;8.75;;;;;;;11.21;100.00;93612.94;2131335;27;20448;-72
2022/08/07 00:50:11;;;;;;;8.52;7.72;;;;;;;11.29;100.00;93625.06;2130398;27;20031;-71
2022/08/07 00:51:13;;;;;;;9.73;8.75;;;;;;;11.30;100.00;93618.53;2122045;27;20038;-71
2022/08/07 00:52:14;;;;;;;9.18;8.07;;;;;;;11.29;100.00;93617.78;2121992;27;20034;-70
2022/08/07 00:53:19;;;;;;;9.55;8.65;;;;;;;11.20;100.00;93622.16;2131249;27;20030;-70
2022/08/07 00:54:20;;;;;;;9.68;8.77;;;;;;;11.18;100.00;93619.09;2130543;27;20456;-70
2022/08/07 00:55:21;;;;;;;8.40;7.55;;;;;;;11.21;100.00;93619.06;2130577;27;20079;-70
2022/08/07 00:56:22;;;;;;;9.15;8.32;;;;;;;11.23;100.00;93624.75;2127683;27;20026;-70
2022/08/07 00:57:24;;;;;;;8.95;8.00;;;;;;;11.06;100.00;93620.44;2130984;27;20026;-71
2022/08/07 00:58:25;;;;;;;8.73;7.90;;;;;;;11.15;100.00;93619.91;2131218;27;20341;-69
2022/08/07 00:59:26;;;;;;;8.50;7.70;;;;;;;11.18;100.00;93617.19;2131225;27;20046;-73
2022/08/07 01:00:27;;;;;;;10.25;7.80;;;;;;;11.15;100.00;93618.00;2131215;27;20039;-71
2022/08/07 01:01:29;;;;;;;10.23;8.35;;;;;;;11.16;100.00;93616.09;2130291;27;20023;-70
2022/08/07 01:02:30;;;;;;;10.98;8.70;;;;;;;11.06;100.00;93620.44;2130917;27;20504;-70
2022/08/07 01:03:31;;;;;;;9.05;8.02;;;;;;;11.06;100.00;93623.09;2131023;27;20525;-71
2022/08/07 01:04:32;;;;;;;9.48;8.20;;;;;;;10.90;100.00;93614.97;2131069;27;20070;-70
2022/08/07 01:05:34;;;;;;;8.98;7.72;;;;;;;11.05;100.00;93621.59;2130978;27;20083;-70
2022/08/07 01:06:35;;;;;;;8.30;7.60;;;;;;;11.02;100.00;93620.50;2131193;27;20019;-73
2022/08/07 01:07:36;;;;;;;10.85;8.88;;;;;;;10.98;100.00;93616.38;2126766;27;20603;-71
2022/08/07 01:08:38;;;;;;;8.82;8.02;;;;;;;10.99;100.00;93620.56;2127033;27;20019;-70
2022/08/07 01:09:40;;;;;;;9.05;8.27;;;;;;;11.00;100.00;93616.72;2131142;27;20133;-70
2022/08/07 01:10:41;;;;;;;9.15;8.35;;;;;;;10.97;100.00;93620.94;2131091;27;20113;-69
2022/08/07 01:11:42;;;;;;;10.00;8.50;;;;;;;10.90;100.00;93614.97;2130995;27;20030;-71
2022/08/07 01:12:43;;;;;;;9.13;8.10;;;;;;;10.83;100.00;93608.53;2130118;27;20031;-70
2022/08/07 01:13:45;;;;;;;10.48;8.43;;;;;;;10.87;100.00;93613.84;2131069;27;20034;-69
2022/08/07 01:14:45;;;;;;;10.35;8.35;;;;;;;10.83;100.00;93613.13;2130748;27;20043;-72
2022/08/07 01:15:49;;;;;;;9.75;8.30;;;;;;;10.86;100.00;93608.91;2131028;27;20058;-70
2022/08/07 01:16:51;;;;;;;10.32;8.68;;;;;;;10.86;100.00;93609.66;2131017;27;20030;-70
2022/08/07 01:17:52;;;;;;;8.68;7.85;;;;;;;10.80;100.00;93604.03;2129640;27;20027;-70
2022/08/07 01:18:54;;;;;;;8.80;7.97;;;;;;;10.78;100.00;93609.00;2130973;27;20548;-70
2022/08/07 01:20:07;;;;;;;9.82;7.97;;;;;;;10.80;100.00;93605.94;2131031;27;20026;-73
2022/08/07 01:21:13;;;;;;;9.00;8.05;;;;;;;10.65;100.00;93602.69;2126960;27;20031;-70
2022/08/07 01:22:14;;;;;;;8.95;7.93;;;;;;;10.76;100.00;93600.63;2130212;27;20054;-70
2022/08/07 01:23:16;;;;;;;9.63;8.63;;;;;;;10.80;100.00;93595.25;2127731;27;20026;-69
2022/08/07 01:24:18;;;;;;;9.55;8.15;;;;;;;10.76;100.00;93592.63;2130988;27;20098;-70
2022/08/07 01:25:19;;;;;;;9.13;8.23;;;;;;;10.76;100.00;93587.28;2130884;27;20039;-70
2022/08/07 01:26:21;;;;;;;8.27;7.55;;;;;;;10.73;100.00;93590.00;2131045;27;20026;-70
2022/08/07 01:27:23;;;;;;;8.73;7.85;;;;;;;10.77;100.00;93596.03;2130879;27;20035;-73
2022/08/07 01:28:25;;;;;;;9.15;8.35;;;;;;;10.64;100.00;93590.50;2129214;27;20037;-70
2022/08/07 01:29:29;;;;;;;12.07;8.50;;;;;;;10.63;100.00;93586.31;2130841;27;20038;-70
2022/08/07 01:30:31;;;;;;;10.10;8.25;;;;;;;10.62;100.00;93589.38;2130993;27;20079;-70
2022/08/07 01:31:32;;;;;;;9.68;7.97;;;;;;;10.61;100.00;93591.28;2131010;27;20030;-71
2022/08/07 01:32:34;;;;;;;8.27;7.53;;;;;;;10.67;100.00;93588.91;2121672;27;20118;-71
2022/08/07 01:33:36;;;;;;;9.07;7.50;;;;;;;10.65;100.00;93591.25;2117519;27;20023;-70
2022/08/07 01:34:38;;;;;;;10.70;8.90;;;;;;;10.59;100.00;93597.06;2126566;27;20034;-70
2022/08/07 01:35:39;;;;;;;9.00;7.65;;;;;;;10.52;100.00;93599.06;2130760;27;20026;-69
2022/08/07 01:36:40;;;;;;;8.60;7.80;;;;;;;10.57;100.00;93588.66;2130864;27;20022;-70
2022/08/07 01:37:41;;;;;;;7.47;6.88;;;;;;;10.56;100.00;93584.50;2130822;27;20345;-72
2022/08/07 01:38:43;;;;;;;9.50;7.65;;;;;;;10.52;100.00;93583.78;2130093;27;20410;-70
2022/08/07 01:39:45;;;;;;;7.88;7.18;;;;;;;10.46;100.00;93584.66;2130788;27;20038;-70
2022/08/07 01:40:48;;;;;;;7.70;6.95;;;;;;;10.44;100.00;93584.28;2131060;27;20026;-71
2022/08/07 01:41:49;;;;;;;8.65;7.38;;;;;;;10.37;100.00;93585.16;2131046;27;20034;-70
2022/08/07 01:42:50;;;;;;;7.82;7.07;;;;;;;10.34;100.00;93584.03;2130995;27;20428;-73
2022/08/07 01:43:51;;;;;;;7.53;6.82;;;;;;;10.34;100.00;93588.63;2130121;27;20372;-70
2022/08/07 01:44:52;;;;;;;8.23;7.53;;;;;;;10.36;100.00;93588.19;2130589;27;20023;-73
2022/08/07 01:45:54;;;;;;;10.45;8.00;;;;;;;10.45;100.00;93578.56;2130646;27;20417;-71
2022/08/07 01:46:57;;;;;;;8.63;7.82;;;;;;;10.44;100.00;93581.59;2131026;27;20026;-71
2022/08/07 01:47:58;;;;;;;9.23;7.13;;;;;;;10.40;100.00;93588.91;2130771;27;20035;-69
2022/08/07 01:48:59;;;;;;;9.18;7.82;;;;;;;10.37;100.00;93579.81;2126979;27;20140;-71
2022/08/07 01:50:00;;;;;;;7.55;6.82;;;;;;;10.26;100.00;93584.50;2130510;27;20484;-71
2022/08/07 01:51:07;;;;;;;10.60;7.00;;;;;;;10.28;100.00;93582.97;2130900;27;20031;-71
2022/08/07 01:52:09;;;;;;;9.85;7.38;;;;;;;10.15;100.00;93583.88;2126716;27;20103;-70
2022/08/07 01:53:11;;;;;;;10.20;7.20;;;;;;;10.12;100.00;93580.09;2130854;27;20022;-70
2022/08/07 01:54:13;;;;;;;8.05;7.30;;;;;;;10.20;100.00;93578.09;2128334;27;20058;-73
2022/08/07 01:55:15;;;;;;;7.32;6.18;;;;;;;10.17;100.00;93576.22;2130556;27;20042;-70
2022/08/07 01:56:45;;;;;;;8.23;7.43;;;;;;;10.26;100.00;93574.59;2130812;27;21138;-70
2022/08/07 01:57:47;;;;;;;8.70;7.60;;;;;;;10.19;100.00;93579.25;2118366;27;20042;-69
2022/08/07 01:58:52;;;;;;;7.78;6.75;;;;;;;10.20;100.00;93583.44;2130446;27;20087;-71
2022/08/07 01:59:59;;;;;;;8.48;6.70;;;;;;;10.18;100.00;93585.72;2130555;27;20054;-70
2022/08/07 02:01:09;;;;;;;7.88;7.03;;;;;;;10.24;100.00;93576.13;2130626;27;20113;-70
2022/08/07 02:02:18;;;;;;;7.65;6.95;;;;;;;10.18;100.00;93577.72;2126945;27;20030;-70
2022/08/07 02:03:22;;;;;;;7.32;6.72;;;;;;;10.17;100.00;93581.56;2130824;27;20053;-70
2022/08/07 02:04:27;;;;;;;7.45;6.75;;;;;;;10.11;100.00;93583.16;2129928;27;20411;-71
2022/08/07 02:05:35;;;;;;;7.03;6.43;;;;;;;10.17;100.00;93576.97;2130201;27;20023;-71
2022/08/07 02:06:38;;;;;;;7.78;7.07;;;;;;;10.19;100.00;93576.59;2130579;27;20101;-70
2022/08/07 02:07:49;;;;;;;7.45;6.47;;;;;;;10.15;100.00;93573.19;2126865;27;20090;-69
2022/08/07 02:08:53;;;;;;;8.10;6.75;;;;;;;10.11;100.00;93580.50;2130645;27;20033;-70
2022/08/07 02:09:56;;;;;;;7.40;6.57;;;;;;;10.09;100.00;93575.53;2129190;27;20054;-69
2022/08/07 02:11:00;;;;;;;8.20;6.40;;;;;;;10.00;100.00;93580.63;2130338;27;20031;-70
2022/08/07 02:12:15;;;;;;;10.43;6.88;;;;;;;10.03;100.00;93575.22;2130804;27;20117;-73
2022/08/07 02:14:52;;;;;;;;;;;;;;;10.03;100.00;93577.91;2146498;27;20558;-69
2022/08/07 02:15:55;;;;;;;9.13;5.97;;;;;;;10.05;100.00;93580.16;2139939;27;19967;-71
2022/08/07 02:16:57;;;;;;;6.72;6.18;;;;;;;10.04;100.00;93574.06;2124612;27;20023;-69
2022/08/07 02:18:01;;;;;;;7.05;6.20;;;;;;;10.02;100.00;93579.06;2124699;27;20019;-70
2022/08/07 02:19:06;;;;;;;7.63;6.43;;;;;;;9.89;100.00;93578.06;2134584;27;20035;-71
2022/08/07 02:20:08;;;;;;;6.65;5.95;;;;;;;9.95;100.00;93581.06;2135737;27;20468;-72
2022/08/07 02:21:09;;;;;;;7.10;6.32;;;;;;;9.90;100.00;93578.84;2133616;27;20105;-69
2022/08/07 02:22:12;;;;;;;7.18;6.47;;;;;;;9.85;100.00;93588.03;2133917;27;20081;-72
2022/08/07 02:23:14;;;;;;;7.22;6.57;;;;;;;9.86;100.00;93578.13;2133748;27;20364;-69
2022/08/07 02:24:16;;;;;;;7.25;6.13;;;;;;;9.79;100.00;93578.97;2133734;27;20468;-69
2022/08/07 02:25:19;;;;;;;6.07;5.55;;;;;;;9.86;100.00;93580.78;2135468;27;20046;-69
2022/08/07 02:26:20;;;;;;;8.57;6.05;;;;;;;9.81;100.00;93580.06;2135969;27;20031;-72
2022/08/07 02:27:24;;;;;;;6.63;5.97;;;;;;;9.80;100.00;93577.81;2133768;27;20031;-69
2022/08/07 02:28:29;;;;;;;6.72;6.07;;;;;;;9.78;100.00;93572.84;2133744;27;20038;-72
2022/08/07 02:29:31;;;;;;;6.93;6.30;;;;;;;9.74;100.00;93582.81;2133796;27;20050;-71
2022/08/07 02:30:35;;;;;;;9.07;6.22;;;;;;;9.82;100.00;93580.81;2121937;27;20024;-69
2022/08/07 02:31:37;;;;;;;10.60;6.10;;;;;;;9.76;100.00;93583.19;2116698;27;20085;-70
2022/08/07 02:32:38;;;;;;;6.85;6.13;;;;;;;9.82;100.00;93578.16;2133754;27;20057;-70
2022/08/07 02:33:40;;;;;;;5.93;5.43;;;;;;;9.72;100.00;93577.13;2133622;27;20030;-68
2022/08/07 02:34:44;;;;;;;8.68;5.97;;;;;;;9.70;100.00;93581.34;2133402;27;20026;-69
2022/08/07 02:35:47;;;;;;;9.98;6.15;;;;;;;9.68;100.00;93579.06;2136872;27;20034;-69
2022/08/07 02:36:49;;;;;;;6.97;5.60;;;;;;;9.73;100.00;93581.28;2136080;27;20026;-68
2022/08/07 02:37:52;;;;;;;5.85;5.35;;;;;;;9.76;100.00;93585.09;2133661;27;20022;-69
2022/08/07 02:38:55;;;;;;;7.35;6.07;;;;;;;9.72;100.00;93584.38;2133824;27;20022;-69
2022/08/07 02:39:58;;;;;;;6.03;5.53;;;;;;;9.75;100.00;93584.34;2132145;27;20031;-68
2022/08/07 02:41:00;;;;;;;6.13;5.53;;;;;;;9.71;100.00;93585.53;2137257;27;20018;-69
2022/08/07 02:42:03;;;;;;;6.35;5.75;;;;;;;9.61;100.00;93584.47;2133565;27;20022;-69
2022/08/07 02:43:05;;;;;;;5.55;5.05;;;;;;;9.40;100.00;93582.03;2129756;27;20031;-71
2022/08/07 02:44:06;;;;;;;6.75;5.22;;;;;;;9.50;100.00;93579.25;2136951;27;20446;-73
2022/08/07 02:45:11;;;;;;;9.07;4.95;;;;;;;9.58;100.00;93583.38;2129376;27;20414;-69
2022/08/07 02:46:13;;;;;;;6.15;5.55;;;;;;;9.56;100.00;93582.25;2136942;27;20031;-69
2022/08/07 02:47:16;;;;;;;7.28;5.40;;;;;;;9.65;100.00;93579.84;2133655;27;20081;-69
2022/08/07 02:48:17;;;;;;;10.10;5.57;;;;;;;9.63;100.00;93581.44;2133526;27;20482;-70
2022/08/07 02:49:18;;;;;;;6.03;5.05;;;;;;;9.64;100.00;93575.69;2133668;27;20042;-70
2022/08/07 02:50:19;;;;;;;10.20;5.15;;;;;;;9.64;100.00;93581.03;2133678;27;20045;-69
2022/08/07 02:51:23;;;;;;;5.97;5.47;;;;;;;9.65;100.00;93577.19;2134005;27;20117;-69
2022/08/07 02:52:51;;;;;;;6.07;5.50;;;;;;;9.65;100.00;93579.84;2133657;27;20039;-69
2022/08/07 02:53:54;;;;;;;5.57;5.07;;;;;;;9.71;100.00;93572.19;2133631;27;20026;-69
2022/08/07 02:54:59;;;;;;;5.47;4.97;;;;;;;9.73;100.00;93577.88;2133551;27;20102;-72
2022/08/07 02:56:03;;;;;;;6.15;4.90;;;;;;;9.57;100.00;93573.09;2135398;27;20037;-71
2022/08/07 02:57:07;;;;;;;5.55;4.80;;;;;;;9.55;100.00;93567.38;2137941;27;20052;-69
2022/08/07 02:58:14;;;;;;;4.78;4.40;;;;;;;9.50;100.00;93573.91;2133203;27;20045;-69
2022/08/07 02:59:18;;;;;;;6.13;4.63;;;;;;;9.49;100.00;93569.75;2133546;27;20474;-69
2022/08/07 03:00:22;;;;;;;6.10;5.10;;;;;;;9.41;100.00;93567.53;2133473;27;20083;-69
2022/08/07 03:01:24;;;;;;;5.20;4.70;;;;;;;9.50;100.00;93573.16;2135603;27;20034;-69
2022/08/07 03:02:25;;;;;;;7.22;4.82;;;;;;;9.50;100.00;93571.25;2133559;27;20548;-70
2022/08/07 03:03:30;;;;;;;6.13;4.70;;;;;;;9.50;100.00;93565.16;2133272;27;20087;-71
2022/08/07 03:04:32;;;;;;;6.50;5.03;;;;;;;9.50;100.00;93565.91;2133611;27;20101;-69
2022/08/07 03:05:35;;;;;;;5.63;4.63;;;;;;;9.37;100.00;93572.16;2133311;27;20115;-71
2022/08/07 03:06:36;;;;;;;7.32;5.10;;;;;;;9.38;100.00;93568.31;2133133;27;20477;-69
2022/08/07 03:07:38;;;;;;;6.40;4.10;;;;;;;9.27;100.00;93568.44;2133496;27;20073;-69
2022/08/07 03:08:39;;;;;;;5.93;4.45;;;;;;;9.33;100.00;93572.19;2133250;27;20019;-69
2022/08/07 03:09:40;;;;;;;4.43;3.85;;;;;;;9.32;100.00;93566.09;2133358;27;20598;-69
2022/08/07 03:10:44;;;;;;;5.53;4.30;;;;;;;9.28;100.00;93565.38;2133390;27;20027;-69
2022/08/07 03:11:46;;;;;;;5.15;4.00;;;;;;;9.29;100.00;93572.22;2134414;27;20026;-69
2022/08/07 03:12:49;;;;;;;4.15;3.70;;;;;;;9.34;100.00;93566.44;2133400;27;20023;-69
2022/08/07 03:13:50;;;;;;;7.05;4.47;;;;;;;9.28;100.00;93573.38;2132824;27;20038;-71
2022/08/07 03:14:52;;;;;;;4.45;4.05;;;;;;;9.29;100.00;93569.53;2133242;27;20023;-70
2022/08/07 03:15:54;;;;;;;4.70;4.30;;;;;;;9.28;100.00;93568.03;2133425;27;20031;-68
2022/08/07 03:16:56;;;;;;;5.28;4.43;;;;;;;9.31;100.00;93566.50;2133792;27;20456;-68
2022/08/07 03:17:57;;;;;;;4.78;4.25;;;;;;;9.45;100.00;93563.69;2134752;27;20064;-69
2022/08/07 03:18:59;;;;;;;7.18;4.38;;;;;;;9.43;100.00;93562.56;2133205;27;20414;-71
2022/08/07 03:20:01;;;;;;;5.45;4.10;;;;;;;9.38;100.00;93561.06;2133301;27;20083;-69
2022/08/07 03:21:05;;;;;;;4.57;3.85;;;;;;;9.37;100.00;93556.91;2133436;27;20022;-69
2022/08/07 03:22:07;;;;;;;6.38;3.75;;;;;;;9.41;100.00;93562.22;2138884;27;20092;-71
2022/08/07 03:23:09;;;;;;;7.40;4.03;;;;;;;9.21;100.00;93560.09;2133341;27;20026;-68
2022/08/07 03:24:10;;;;;;;4.43;4.03;;;;;;;9.26;100.00;93558.91;2133118;27;20416;-71
2022/08/07 03:25:11;;;;;;;3.95;3.55;;;;;;;9.21;100.00;93562.75;2133148;27;20034;-68
2022/08/07 03:26:18;;;;;;;4.20;3.60;;;;;;;9.21;100.00;93559.34;2127355;27;20031;-68
2022/08/07 03:27:19;;;;;;;5.65;3.90;;;;;;;9.06;100.00;93566.72;2129030;27;20874;-68
2022/08/07 03:28:21;;;;;;;7.60;3.95;;;;;;;9.06;100.00;93561.38;2127649;27;20076;-69
2022/08/07 03:29:22;;;;;;;7.93;3.95;;;;;;;9.17;100.00;93563.94;2127457;27;20031;-70
2022/08/07 03:30:24;;;;;;;4.20;3.80;;;;;;;9.05;100.00;93565.97;2127470;27;20472;-69
2022/08/07 03:31:28;;;;;;;5.75;3.50;;;;;;;9.09;100.00;93560.59;2127541;27;20114;-68
2022/08/07 03:32:38;;;;;;;5.38;3.47;;;;;;;9.14;100.00;93562.84;2129657;27;20037;-69
2022/08/07 03:33:40;;;;;;;5.72;3.45;;;;;;;9.10;100.00;93561.38;2127559;27;20082;-69
2022/08/07 03:34:43;;;;;;;3.85;3.50;;;;;;;9.10;100.00;93556.03;2127358;27;20026;-70
2022/08/07 03:35:47;;;;;;;4.93;3.95;;;;;;;8.85;100.00;93562.31;2127448;27;20041;-70
2022/08/07 03:36:50;;;;;;;4.47;3.95;;;;;;;8.91;100.00;93566.09;2127521;27;20033;-69
2022/08/07 03:38:01;;;;;;;5.18;3.75;;;;;;;8.98;100.00;93570.59;2129183;27;20031;-70
2022/08/07 03:39:07;;;;;;;4.85;3.72;;;;;;;8.93;100.00;93566.44;2128187;27;20023;-70
2022/08/07 03:40:09;;;;;;;4.18;3.75;;;;;;;9.01;100.00;93565.25;2127293;27;20216;-69
2022/08/07 03:41:10;;;;;;;5.13;3.50;;;;;;;8.85;100.00;93570.31;2128295;27;20034;-69
2022/08/07 03:42:11;;;;;;;4.63;3.60;;;;;;;8.90;100.00;93563.81;2127594;27;20517;-68
2022/08/07 03:43:14;;;;;;;9.20;3.33;;;;;;;8.81;100.00;93567.66;2129983;27;20023;-70
2022/08/07 03:44:15;;;;;;;4.57;3.58;;;;;;;8.87;100.00;93569.91;2127424;27;20031;-71
2022/08/07 03:45:18;;;;;;;4.03;3.63;;;;;;;8.87;100.00;93576.03;2127299;27;20069;-71
2022/08/07 03:46:21;;;;;;;4.10;3.70;;;;;;;8.85;100.00;93588.22;2127433;27;20377;-70
2022/08/07 03:47:22;;;;;;;4.95;3.67;;;;;;;8.77;100.00;93585.59;2127446;27;20046;-71
2022/08/07 03:48:23;;;;;;;5.10;3.40;;;;;;;8.92;100.00;93574.84;2128678;27;20041;-70
2022/08/07 03:49:24;;;;;;;3.70;3.40;;;;;;;8.94;100.00;93572.53;2129301;27;20031;-70
2022/08/07 03:50:26;;;;;;;4.22;3.40;;;;;;;8.92;100.00;93577.50;2127274;27;20038;-69
2022/08/07 03:51:31;;;;;;;3.88;3.47;;;;;;;8.87;100.00;93576.03;2127168;27;20058;-72
2022/08/07 03:52:34;;;;;;;5.13;3.25;;;;;;;8.77;100.00;93579.50;2127401;27;20465;-70
2022/08/07 03:53:36;;;;;;;4.63;3.50;;;;;;;8.80;100.00;93581.41;2133347;27;20063;-73
2022/08/07 03:54:37;;;;;;;3.35;2.75;;;;;;;8.79;100.00;93579.91;2127225;27;20038;-72
2022/08/07 03:55:39;;;;;;;4.72;3.15;;;;;;;8.82;100.00;93584.41;2127177;27;20457;-69
2022/08/07 03:56:41;;;;;;;4.13;3.55;;;;;;;8.68;100.00;93579.94;2127295;27;20026;-70
2022/08/07 03:57:44;;;;;;;4.57;2.92;;;;;;;8.68;100.00;93579.19;2127311;27;20034;-70
2022/08/07 03:58:45;;;;;;;4.30;3.17;;;;;;;8.77;100.00;93579.50;2128109;27;20141;-70
2022/08/07 03:59:47;;;;;;;3.83;3.17;;;;;;;8.76;100.00;93578.00;2127329;27;20035;-69
2022/08/07 04:00:52;;;;;;;4.55;3.25;;;;;;;8.67;100.00;93573.13;2127270;27;20038;-70
2022/08/07 04:01:55;;;;;;;5.60;3.38;;;;;;;8.75;100.00;93577.25;2127357;27;20448;-70
2022/08/07 04:02:56;;;;;;;7.05;3.38;;;;;;;8.65;100.00;93574.66;2127374;27;20110;-70
2022/08/07 04:03:57;;;;;;;4.57;3.50;;;;;;;8.72;100.00;93575.34;2127126;27;20038;-75
2022/08/07 04:04:58;;;;;;;3.63;3.20;;;;;;;8.82;100.00;93571.88;2128563;27;20030;-70
2022/08/07 04:05:59;;;;;;;4.38;3.00;;;;;;;8.75;100.00;93573.84;2127277;27;20035;-70
2022/08/07 04:07:01;;;;;;;7.28;3.25;;;;;;;8.77;100.00;93564.28;2126991;27;20050;-69
2022/08/07 04:08:03;;;;;;;6.25;3.22;;;;;;;8.64;100.00;93578.47;2126308;27;20043;-70
2022/08/07 04:09:05;;;;;;;4.90;3.20;;;;;;;8.54;100.00;93569.41;2120104;27;20146;-69
2022/08/07 04:10:06;;;;;;;5.50;3.25;;;;;;;8.64;100.00;93567.81;2118377;27;20028;-69
2022/08/07 04:11:09;;;;;;;3.55;3.25;;;;;;;8.54;100.00;93572.81;2127225;27;20023;-70
2022/08/07 04:12:11;;;;;;;4.85;2.83;;;;;;;8.89;100.00;93564.97;2127019;27;20026;-69
2022/08/07 04:13:13;;;;;;;6.57;3.67;;;;;;;8.90;100.00;93567.22;2127215;27;20464;-70
2022/08/07 04:14:14;;;;;;;3.20;2.88;;;;;;;8.81;100.00;93572.25;2128258;27;20046;-69
2022/08/07 04:15:16;;;;;;;3.88;3.45;;;;;;;8.80;100.00;93571.50;2130143;27;20368;-70
2022/08/07 04:16:17;;;;;;;5.18;2.90;;;;;;;8.62;100.00;93575.44;2117912;27;20500;-70
2022/08/07 04:17:19;;;;;;;6.03;3.03;;;;;;;8.71;100.00;93567.75;2117848;27;20031;-69
2022/08/07 04:18:20;;;;;;;3.75;3.30;;;;;;;8.66;100.00;93576.94;2127355;27;20038;-70
2022/08/07 04:19:22;;;;;;;4.57;3.08;;;;;;;8.67;100.00;93575.03;2128376;27;20026;-69
2022/08/07 04:20:23;;;;;;;6.80;3.17;;;;;;;8.66;100.00;93570.84;2129233;27;20030;-70
2022/08/07 04:21:24;;;;;;;8.73;3.33;;;;;;;8.69;100.00;93572.72;2129933;27;20037;-70
2022/08/07 04:22:25;;;;;;;3.50;3.20;;;;;;;8.74;100.00;93572.31;2128827;27;20030;-71
2022/08/07 04:23:27;;;;;;;4.18;2.88;;;;;;;8.58;100.00;93565.56;2127199;27;20037;-69
2022/08/07 04:24:28;;;;;;;4.15;3.22;;;;;;;8.66;100.00;93576.19;2127439;27;20041;-70
2022/08/07 04:25:29;;;;;;;5.20;3.20;;;;;;;8.62;100.00;93572.78;2132674;27;20029;-70
2022/08/07 04:26:31;;;;;;;5.10;3.60;;;;;;;8.49;100.00;93572.47;2127027;27;20066;-71
2022/08/07 04:27:33;;;;;;;3.63;3.33;;;;;;;8.58;100.00;93578.88;2117745;27;20509;-69
2022/08/07 04:28:34;;;;;;;3.65;2.85;;;;;;;8.49;100.00;93573.25;2118272;27;20487;-71
2022/08/07 04:29:36;;;;;;;6.35;2.95;;;;;;;8.55;100.00;93577.00;2127010;27;20054;-69
2022/08/07 04:30:38;;;;;;;4.43;3.15;;;;;;;8.58;100.00;93584.22;2131368;27;20047;-71
2022/08/07 04:31:39;;;;;;;3.58;3.00;;;;;;;8.51;100.00;93576.25;2126991;27;20459;-73
2022/08/07 04:32:41;;;;;;;5.53;3.40;;;;;;;8.50;100.00;93580.06;2126950;27;20054;-70
2022/08/07 04:33:45;;;;;;;5.20;2.80;;;;;;;8.47;100.00;93580.88;2127183;27;20457;-73
2022/08/07 04:34:46;;;;;;;5.88;3.05;;;;;;;8.51;100.00;93583.50;2126907;27;20463;-72
2022/08/07 04:35:47;;;;;;;3.53;2.90;;;;;;;8.49;100.00;93577.81;2133322;27;20037;-72
2022/08/07 04:36:48;;;;;;;4.95;2.80;;;;;;;8.49;100.00;93577.81;2127090;27;20039;-72
2022/08/07 04:37:49;;;;;;;3.80;3.20;;;;;;;8.51;100.00;93586.91;2125869;27;20417;-70
2022/08/07 04:38:50;;;;;;;5.80;3.10;;;;;;;8.54;100.00;93580.81;2126901;27;20410;-69
2022/08/07 04:39:51;;;;;;;3.10;2.80;;;;;;;8.54;100.00;93578.16;2126872;27;20023;-70
2022/08/07 04:40:52;;;;;;;4.47;2.83;;;;;;;8.61;100.00;93582.69;2131560;27;20028;-72
2022/08/07 04:41:53;;;;;;;3.28;2.97;;;;;;;8.56;100.00;93580.44;2127068;27;20033;-69
2022/08/07 04:42:54;;;;;;;3.88;2.55;;;;;;;8.65;100.00;93587.97;2127075;27;20021;-73
2022/08/07 04:43:55;;;;;;;3.78;2.72;;;;;;;8.75;100.00;93581.81;2126829;27;20033;-72
2022/08/07 04:44:59;;;;;;;3.30;3.00;;;;;;;8.75;100.00;93582.56;2126743;27;20097;-69
2022/08/07 04:46:17;;;;;;;5.82;3.33;;;;;;;8.78;100.00;93573.03;2124406;27;20033;-70
2022/08/07 04:47:48;;;;;;;4.25;3.08;;;;;;;8.77;100.00;93572.28;2117429;27;20031;-69
2022/08/07 04:49:09;;;;;;;3.35;2.75;;;;;;;8.86;100.00;93571.81;2126693;27;20014;-70
2022/08/07 04:50:17;;;;;;;4.22;3.20;;;;;;;8.87;100.00;93581.34;2126933;27;20034;-69
2022/08/07 04:51:36;;;;;;;7.43;2.83;;;;;;;8.92;100.00;93580.19;2131661;27;20038;-70
2022/08/07 04:52:49;;;;;;;7.30;2.90;;;;;;;8.98;100.00;93576.69;2126872;27;20037;-69
2022/08/07 04:54:32;;;;;;;18.88;3.58;;;;;;;8.99;100.00;93575.53;2126588;27;20034;-69
2022/08/07 04:56:00;;;;;;;6.13;2.67;;;;;;;9.16;100.00;93578.44;2126746;27;20034;-70